Time;durP1;ratioP1;P1;durP2;ratioP2;P2;SDS_P1;SDS_P2;PMS_P1;PMS_P2;Temp;Humidity;BMP_temperature;BMP_pressure;BME280_temperature;BME280_humidity;BME280_pressure;Samples;Min_cycle;Max_cycle;Signal;HPM_P1;HPM_P2
2021/09/20 00:02:10;;;;;;;1.00;0.73;;;12.80;86.20;;;;;;4994845;28;20499;-80
2021/09/20 00:04:36;;;;;;;0.88;0.80;;;12.90;86.30;;;;;;4995057;28;20038;-80
2021/09/20 00:07:02;;;;;;;0.70;0.63;;;12.80;86.30;;;;;;4995047;28;20101;-80
2021/09/20 00:09:28;;;;;;;0.70;0.60;;;12.80;86.30;;;;;;5003842;28;20123;-80
2021/09/20 00:11:53;;;;;;;0.85;0.70;;;12.70;86.30;;;;;;5051427;28;20141;-81
2021/09/20 00:14:19;;;;;;;0.70;0.68;;;12.70;86.30;;;;;;5034058;28;20128;-82
2021/09/20 00:16:45;;;;;;;0.88;0.70;;;12.70;86.30;;;;;;5017915;28;20520;-81
2021/09/20 00:19:11;;;;;;;0.75;0.60;;;12.60;86.30;;;;;;5031444;28;20513;-80
2021/09/20 00:21:37;;;;;;;0.70;0.68;;;12.60;86.30;;;;;;5050770;28;20041;-82
2021/09/20 00:24:02;;;;;;;0.65;0.45;;;12.60;86.40;;;;;;5034280;28;20045;-80
2021/09/20 00:26:28;;;;;;;0.90;0.70;;;12.60;86.40;;;;;;5051269;28;20522;-80
2021/09/20 00:28:54;;;;;;;0.93;0.70;;;12.60;86.40;;;;;;5034358;28;20040;-80
2021/09/20 00:31:20;;;;;;;0.50;0.50;;;12.60;86.50;;;;;;5051012;28;20068;-80
2021/09/20 00:33:45;;;;;;;0.73;0.50;;;12.50;86.50;;;;;;5068449;28;20048;-80
2021/09/20 00:36:11;;;;;;;1.02;0.80;;;12.50;86.50;;;;;;5061176;28;20358;-80
2021/09/20 00:38:37;;;;;;;0.82;0.70;;;12.40;86.40;;;;;;5061493;28;20082;-81
2021/09/20 00:41:04;;;;;;;0.70;0.60;;;12.40;86.40;;;;;;5061217;28;20043;-81
2021/09/20 00:43:29;;;;;;;1.00;0.70;;;12.40;86.40;;;;;;5096987;28;20036;-81
2021/09/20 00:45:55;;;;;;;1.27;0.80;;;12.40;86.40;;;;;;5033830;28;20447;-81
2021/09/20 00:48:21;;;;;;;0.60;0.47;;;12.30;86.50;;;;;;5033879;28;20387;-81
2021/09/20 00:50:47;;;;;;;0.77;0.60;;;12.30;86.50;;;;;;5051353;28;20049;-82
2021/09/20 00:53:13;;;;;;;1.10;0.60;;;12.30;86.50;;;;;;5017771;28;20044;-81
2021/09/20 00:55:40;;;;;;;0.60;0.60;;;12.30;86.50;;;;;;5017537;28;20560;-82
2021/09/20 00:58:08;;;;;;;1.45;0.88;;;12.20;86.50;;;;;;5050895;28;20037;-81
2021/09/20 01:00:35;;;;;;;0.82;0.73;;;12.20;86.50;;;;;;5019567;28;20037;-81
2021/09/20 01:03:01;;;;;;;1.02;0.60;;;12.20;86.50;;;;;;5019386;28;20109;-81
2021/09/20 01:05:27;;;;;;;0.73;0.60;;;12.20;86.60;;;;;;5050764;28;20136;-82
2021/09/20 01:07:52;;;;;;;0.52;0.50;;;12.20;86.60;;;;;;5033771;28;20499;-82
2021/09/20 01:10:18;;;;;;;1.73;0.93;;;12.20;86.60;;;;;;5017539;28;20541;-81
2021/09/20 01:12:44;;;;;;;1.02;0.70;;;12.10;86.60;;;;;;5033642;28;20522;-81
2021/09/20 01:15:10;;;;;;;1.15;0.85;;;12.20;86.60;;;;;;5050878;28;20045;-81
2021/09/20 01:17:36;;;;;;;1.02;0.70;;;12.10;86.50;;;;;;5098915;28;20040;-80
2021/09/20 01:20:03;;;;;;;1.58;1.00;;;12.10;86.60;;;;;;5094964;28;20127;-81
2021/09/20 01:22:29;;;;;;;1.45;0.88;;;12.10;86.60;;;;;;5096860;28;20059;-81
2021/09/20 01:24:55;;;;;;;0.75;0.68;;;12.00;86.60;;;;;;5094816;28;20085;-81
2021/09/20 01:27:21;;;;;;;0.77;0.60;;;12.00;86.60;;;;;;5060999;28;20130;-81
2021/09/20 01:29:48;;;;;;;0.70;0.70;;;12.00;86.60;;;;;;5077325;28;21522;-81
2021/09/20 01:32:14;;;;;;;1.20;0.80;;;12.10;86.70;;;;;;5113032;28;20047;-81
2021/09/20 01:34:40;;;;;;;0.98;0.68;;;11.90;86.60;;;;;;5094491;28;20104;-81
2021/09/20 01:37:06;;;;;;;1.38;0.90;;;11.90;86.60;;;;;;5078809;28;20027;-82
2021/09/20 01:39:34;;;;;;;0.82;0.60;;;11.90;86.60;;;;;;5095062;28;20619;-81
2021/09/20 01:42:00;;;;;;;1.20;0.75;;;11.90;86.60;;;;;;5077681;28;20096;-82
2021/09/20 01:44:27;;;;;;;1.67;0.93;;;11.90;86.50;;;;;;5095090;28;20046;-81
2021/09/20 01:46:56;;;;;;;1.23;0.60;;;11.90;86.80;;;;;;5113254;28;20043;-81
2021/09/20 01:49:23;;;;;;;1.27;0.77;;;11.90;86.50;;;;;;5094680;28;20120;-81
2021/09/20 01:51:49;;;;;;;0.68;0.50;;;11.90;86.50;;;;;;5094699;28;20126;-81
2021/09/20 01:54:15;;;;;;;0.93;0.70;;;11.90;86.40;;;;;;5077276;28;20126;-81
2021/09/20 01:56:42;;;;;;;1.00;0.75;;;11.90;86.30;;;;;;5094926;28;20036;-81
2021/09/20 01:59:08;;;;;;;0.95;0.70;;;11.80;86.30;;;;;;5077453;28;20043;-81
2021/09/20 02:01:35;;;;;;;1.08;0.70;;;11.90;86.30;;;;;;5060912;28;20043;-80
2021/09/20 02:04:01;;;;;;;0.65;0.50;;;11.80;86.20;;;;;;5077346;28;20122;-80
2021/09/20 02:06:27;;;;;;;0.50;0.50;;;11.90;86.20;;;;;;5112698;28;20067;-81
2021/09/20 02:08:54;;;;;;;1.08;0.70;;;11.90;86.20;;;;;;5112481;28;20054;-81
2021/09/20 02:11:22;;;;;;;1.40;0.90;;;11.80;86.20;;;;;;5070381;28;20154;-80
2021/09/20 02:13:49;;;;;;;0.70;0.70;;;11.80;86.20;;;;;;5112059;28;20040;-81
2021/09/20 02:16:15;;;;;;;1.17;0.77;;;11.80;86.10;;;;;;5112427;28;20089;-80
2021/09/20 02:18:41;;;;;;;0.95;0.80;;;11.80;86.10;;;;;;5078951;28;20040;-80
2021/09/20 02:21:08;;;;;;;0.70;0.63;;;11.90;86.10;;;;;;5094011;28;20042;-80
2021/09/20 02:23:36;;;;;;;0.68;0.65;;;11.80;86.10;;;;;;5112318;28;20039;-80
2021/09/20 02:26:04;;;;;;;0.75;0.63;;;11.80;86.10;;;;;;5077019;28;20086;-80
2021/09/20 02:28:30;;;;;;;1.02;0.70;;;11.80;86.10;;;;;;5112036;28;20035;-80
2021/09/20 02:30:56;;;;;;;1.23;0.68;;;11.80;86.10;;;;;;5112133;28;20028;-81
2021/09/20 02:33:22;;;;;;;0.80;0.70;;;11.70;86.00;;;;;;5096005;28;20138;-81
2021/09/20 02:35:49;;;;;;;0.73;0.60;;;11.70;86.00;;;;;;5093768;28;20095;-81
2021/09/20 02:38:14;;;;;;;0.85;0.70;;;11.80;86.10;;;;;;5093709;28;20036;-81
2021/09/20 02:40:40;;;;;;;0.55;0.50;;;11.70;86.10;;;;;;5093727;28;20050;-81
2021/09/20 02:43:07;;;;;;;0.90;0.60;;;11.70;86.20;;;;;;5080377;28;20062;-81
2021/09/20 02:45:32;;;;;;;0.60;0.50;;;11.70;86.20;;;;;;5097432;28;20044;-81
2021/09/20 02:47:58;;;;;;;0.90;0.60;;;11.70;86.10;;;;;;5115974;28;20507;-81
2021/09/20 02:50:24;;;;;;;0.50;0.50;;;11.70;86.20;;;;;;5115838;28;20421;-81
2021/09/20 02:52:50;;;;;;;1.02;0.80;;;11.60;86.20;;;;;;5080110;28;20054;-81
2021/09/20 02:55:15;;;;;;;0.77;0.60;;;11.70;86.20;;;;;;5063114;28;20039;-81
2021/09/20 02:57:42;;;;;;;1.05;0.65;;;11.60;86.20;;;;;;5063238;28;20397;-81
2021/09/20 03:00:11;;;;;;;0.88;0.70;;;11.60;86.20;;;;;;5079709;28;20040;-81
2021/09/20 03:02:37;;;;;;;0.95;0.77;;;11.60;86.20;;;;;;5079993;28;20048;-81
2021/09/20 03:05:04;;;;;;;0.70;0.60;;;11.60;86.20;;;;;;5097214;28;20375;-81
2021/09/20 03:07:30;;;;;;;0.80;0.63;;;11.60;86.20;;;;;;5080554;28;20043;-81
2021/09/20 03:09:55;;;;;;;1.30;0.80;;;11.60;86.20;;;;;;5115223;28;20035;-80
2021/09/20 03:12:21;;;;;;;0.77;0.70;;;11.50;86.20;;;;;;5097142;28;20560;-80
2021/09/20 03:14:47;;;;;;;0.77;0.45;;;11.50;86.30;;;;;;5097787;28;20063;-80
2021/09/20 03:17:13;;;;;;;0.50;0.50;;;11.50;86.40;;;;;;5063042;28;20047;-81
2021/09/20 03:19:39;;;;;;;0.73;0.57;;;11.40;86.50;;;;;;5096758;28;20043;-80
2021/09/20 03:22:05;;;;;;;0.60;0.60;;;11.40;86.50;;;;;;5079690;28;20093;-81
2021/09/20 03:24:31;;;;;;;0.50;0.50;;;11.40;86.50;;;;;;5115402;28;20047;-81
2021/09/20 03:26:56;;;;;;;0.70;0.70;;;11.40;86.50;;;;;;5064206;28;20100;-80
2021/09/20 03:29:22;;;;;;;1.02;0.80;;;11.30;86.50;;;;;;5097056;28;20036;-81
2021/09/20 03:31:48;;;;;;;1.05;0.70;;;11.40;86.60;;;;;;5096425;28;20044;-81
2021/09/20 03:34:14;;;;;;;0.73;0.50;;;11.30;86.60;;;;;;5096674;28;20043;-80
2021/09/20 03:36:40;;;;;;;1.40;0.60;;;11.40;86.70;;;;;;5080098;28;20477;-81
2021/09/20 03:39:06;;;;;;;0.70;0.60;;;11.30;86.60;;;;;;5114938;28;20046;-81
2021/09/20 03:41:32;;;;;;;1.13;0.70;;;11.30;86.60;;;;;;5097014;28;20388;-81
2021/09/20 03:43:58;;;;;;;0.50;0.50;;;11.30;86.60;;;;;;5115606;28;20516;-81
2021/09/20 03:46:24;;;;;;;0.77;0.57;;;11.30;86.60;;;;;;5080367;28;20040;-81
2021/09/20 03:48:50;;;;;;;1.02;0.77;;;11.30;86.60;;;;;;5079435;28;20426;-81
2021/09/20 03:51:15;;;;;;;0.80;0.55;;;11.30;86.60;;;;;;5114874;28;20043;-81
2021/09/20 03:53:41;;;;;;;0.88;0.60;;;11.30;86.60;;;;;;5063196;28;20046;-81
2021/09/20 03:56:08;;;;;;;0.60;0.60;;;11.30;86.60;;;;;;5096706;28;20036;-80
2021/09/20 03:58:35;;;;;;;1.08;0.63;;;11.30;86.50;;;;;;5079103;28;20042;-81
2021/09/20 04:01:01;;;;;;;0.70;0.70;;;11.30;86.50;;;;;;5114406;28;20119;-81
2021/09/20 04:03:27;;;;;;;1.10;0.70;;;11.20;86.30;;;;;;5114475;28;20489;-81
2021/09/20 04:05:53;;;;;;;0.90;0.80;;;11.30;86.30;;;;;;5096426;28;20040;-80
2021/09/20 04:08:26;;;;;;;1.25;0.80;;;11.30;86.30;;;;;;5080279;28;20043;-81
2021/09/20 04:10:52;;;;;;;0.73;0.73;;;11.30;86.30;;;;;;5115059;28;20063;-81
2021/09/20 04:13:17;;;;;;;0.85;0.80;;;11.30;86.30;;;;;;5097237;28;20053;-81
2021/09/20 04:15:43;;;;;;;0.60;0.60;;;11.30;86.20;;;;;;5095821;28;20051;-81
2021/09/20 04:18:09;;;;;;;0.80;0.70;;;11.40;86.20;;;;;;5096069;28;20046;-81
2021/09/20 04:20:35;;;;;;;0.80;0.70;;;11.30;86.10;;;;;;5116247;27;20054;-81
2021/09/20 04:23:00;;;;;;;0.77;0.70;;;11.30;86.10;;;;;;5098040;28;20520;-81
2021/09/20 04:25:26;;;;;;;1.13;0.80;;;11.30;86.10;;;;;;5095658;28;20493;-81
2021/09/20 04:27:52;;;;;;;0.90;0.80;;;11.30;86.00;;;;;;5096089;28;20093;-81
2021/09/20 04:30:18;;;;;;;0.98;0.75;;;11.30;86.00;;;;;;5113856;28;20068;-81
2021/09/20 04:32:44;;;;;;;1.23;0.70;;;11.30;86.00;;;;;;5096315;28;20085;-81
2021/09/20 04:35:10;;;;;;;1.45;1.08;;;11.30;86.00;;;;;;5095894;28;20098;-81
2021/09/20 04:37:37;;;;;;;0.80;0.73;;;11.30;86.10;;;;;;5062798;28;20044;-81
2021/09/20 04:40:05;;;;;;;1.90;0.90;;;11.20;86.00;;;;;;5095651;28;20561;-81
2021/09/20 04:42:30;;;;;;;1.05;0.90;;;11.30;86.00;;;;;;5095721;28;20127;-80
2021/09/20 04:44:56;;;;;;;1.23;0.82;;;11.30;86.00;;;;;;5078638;28;20077;-80
2021/09/20 04:47:22;;;;;;;2.38;1.10;;;11.30;86.00;;;;;;5078555;28;20100;-80
2021/09/20 04:49:48;;;;;;;1.30;0.90;;;11.30;86.00;;;;;;5061478;28;20051;-80
2021/09/20 04:52:13;;;;;;;1.20;0.80;;;11.30;85.90;;;;;;5078244;28;20396;-80
2021/09/20 04:54:39;;;;;;;1.35;1.00;;;11.30;85.80;;;;;;5095615;28;20508;-81
2021/09/20 04:57:05;;;;;;;1.70;1.00;;;11.30;85.80;;;;;;5079853;28;20083;-81
2021/09/20 04:59:30;;;;;;;1.17;0.82;;;11.30;85.90;;;;;;5095599;28;20043;-81
2021/09/20 05:01:56;;;;;;;1.55;0.90;;;11.30;85.80;;;;;;5096086;28;20439;-82
2021/09/20 05:04:22;;;;;;;1.52;1.10;;;11.30;85.80;;;;;;5078187;28;20043;-80
2021/09/20 05:06:48;;;;;;;1.67;1.10;;;11.30;85.80;;;;;;5078284;28;20040;-80
2021/09/20 05:09:13;;;;;;;1.42;1.00;;;11.30;85.80;;;;;;5113330;28;20454;-80
2021/09/20 05:11:39;;;;;;;1.10;0.77;;;11.30;85.80;;;;;;5077983;28;20047;-81
2021/09/20 05:14:05;;;;;;;1.73;1.00;;;11.30;85.80;;;;;;5095030;28;20532;-80
2021/09/20 05:16:31;;;;;;;1.02;0.80;;;11.20;85.80;;;;;;5078242;28;20066;-81
2021/09/20 05:18:57;;;;;;;1.48;1.00;;;11.20;85.90;;;;;;5113602;28;20059;-81
2021/09/20 05:21:23;;;;;;;1.00;0.80;;;11.20;85.80;;;;;;5061298;28;20039;-81
2021/09/20 05:23:50;;;;;;;1.88;0.95;;;11.20;85.80;;;;;;5078126;28;20031;-81
2021/09/20 05:26:17;;;;;;;1.08;0.75;;;11.20;85.80;;;;;;5094922;28;20051;-81
2021/09/20 05:28:43;;;;;;;1.40;1.00;;;11.20;85.80;;;;;;5077864;28;20042;-81
2021/09/20 05:31:09;;;;;;;1.15;0.80;;;11.20;85.90;;;;;;5077382;28;20054;-81
2021/09/20 05:33:35;;;;;;;0.68;0.65;;;11.20;85.90;;;;;;5077893;28;20554;-80
2021/09/20 05:36:03;;;;;;;1.63;1.00;;;11.20;85.90;;;;;;5094755;28;20055;-81
2021/09/20 05:38:29;;;;;;;0.75;0.75;;;11.20;86.00;;;;;;5077970;28;20032;-80
2021/09/20 05:40:54;;;;;;;2.55;1.10;;;11.20;85.90;;;;;;5094327;28;20039;-80
2021/09/20 05:43:20;;;;;;;1.40;1.10;;;11.10;85.90;;;;;;5077938;28;20396;-81
2021/09/20 05:45:46;;;;;;;1.65;0.93;;;11.20;85.90;;;;;;5078032;28;20044;-81
2021/09/20 05:48:12;;;;;;;1.55;1.00;;;11.20;85.90;;;;;;5078386;28;20095;-82
2021/09/20 05:50:39;;;;;;;1.40;1.00;;;11.20;85.90;;;;;;5095305;28;20401;-82
2021/09/20 05:53:05;;;;;;;1.60;1.10;;;11.30;86.00;;;;;;5101591;28;20052;-80
2021/09/20 05:55:31;;;;;;;1.45;1.00;;;11.20;85.90;;;;;;5063643;28;20050;-82
2021/09/20 05:57:56;;;;;;;0.90;0.70;;;11.30;85.90;;;;;;5077754;28;20043;-81
2021/09/20 06:00:23;;;;;;;1.90;1.02;;;11.30;85.90;;;;;;5078126;28;20445;-81
2021/09/20 06:02:49;;;;;;;1.95;1.20;;;11.20;85.80;;;;;;5094477;28;20057;-82
2021/09/20 06:05:16;;;;;;;1.10;0.80;;;11.30;85.80;;;;;;5078031;28;20196;-82
2021/09/20 06:07:42;;;;;;;1.00;0.80;;;11.30;85.80;;;;;;5095036;28;20035;-82
2021/09/20 06:10:10;;;;;;;1.08;0.90;;;11.30;85.80;;;;;;5112495;28;20451;-82
2021/09/20 06:12:35;;;;;;;1.27;0.98;;;11.30;85.70;;;;;;5077933;28;20070;-83
2021/09/20 06:15:03;;;;;;;1.35;0.90;;;11.60;85.80;;;;;;5113164;28;20487;-83
2021/09/20 06:17:29;;;;;;;0.85;0.75;;;11.40;85.70;;;;;;5080560;28;20040;-84
2021/09/20 06:19:54;;;;;;;1.92;0.90;;;11.50;85.70;;;;;;5098100;28;20088;-84
2021/09/20 06:22:20;;;;;;;1.73;1.00;;;11.40;85.60;;;;;;5098403;28;20028;-84
2021/09/20 06:24:46;;;;;;;1.85;1.20;;;11.50;85.50;;;;;;5098808;28;20028;-84
2021/09/20 06:27:11;;;;;;;1.50;1.10;;;11.50;85.40;;;;;;5064879;28;20452;-83
2021/09/20 06:29:37;;;;;;;2.10;1.30;;;11.50;85.30;;;;;;5079598;28;20035;-84
2021/09/20 06:32:03;;;;;;;1.83;1.25;;;11.50;85.20;;;;;;5065061;28;20078;-83
2021/09/20 06:34:29;;;;;;;1.30;1.00;;;11.60;85.20;;;;;;5099684;28;20063;-85
2021/09/20 06:36:55;;;;;;;1.55;1.17;;;11.70;85.80;;;;;;5064270;28;20405;-84
2021/09/20 06:39:21;;;;;;;1.40;1.08;;;11.70;85.10;;;;;;5081909;28;20046;-85
2021/09/20 06:41:47;;;;;;;1.83;1.17;;;11.70;85.10;;;;;;5082121;28;20043;-85
2021/09/20 06:44:13;;;;;;;1.63;1.10;;;11.70;85.00;;;;;;5082190;28;20063;-84
2021/09/20 06:46:38;;;;;;;1.85;1.13;;;11.80;85.00;;;;;;5081542;28;20397;-83
2021/09/20 06:49:10;;;;;;;1.83;1.20;;;11.80;85.00;;;;;;5098935;28;20128;-84
2021/09/20 07:02:32;;;;;;;1.10;1.00;;;12.00;84.60;;;;;;4978077;28;20070;-85
2021/09/20 07:04:58;;;;;;;1.27;0.90;;;12.00;84.40;;;;;;4945020;29;20067;-85
2021/09/20 07:07:23;;;;;;;1.48;1.13;;;12.00;84.30;;;;;;4960283;29;20102;-84
2021/09/20 07:09:49;;;;;;;2.08;1.33;;;12.00;84.20;;;;;;4942262;29;20044;-83
2021/09/20 07:12:15;;;;;;;1.73;1.15;;;12.10;84.20;;;;;;4969417;29;20039;-79
2021/09/20 07:14:42;;;;;;;2.00;1.30;;;12.10;84.70;;;;;;4970572;29;20081;-82
2021/09/20 07:17:08;;;;;;;2.47;1.60;;;12.20;84.00;;;;;;4949931;28;20051;-84
2021/09/20 07:19:46;;;;;;;1.92;1.15;;;12.20;83.90;;;;;;4941847;28;20122;-85
2021/09/20 07:22:55;;;;;;;1.38;1.10;;;12.30;83.90;;;;;;4919407;28;20039;-89
2021/09/20 07:25:04;;;;;;;1.35;1.10;;;12.30;83.80;;;;;;4928307;29;20125;-84
2021/09/20 07:27:30;;;;;;;1.65;1.13;;;12.30;83.70;;;;;;4935937;29;20503;-85
2021/09/20 07:30:17;;;;;;;1.52;1.20;;;12.30;83.60;;;;;;4921825;29;20437;-87
2021/09/20 07:32:45;;;;;;;2.38;1.42;;;12.40;83.60;;;;;;4932532;29;20111;-80
2021/09/20 07:35:16;;;;;;;2.33;1.60;;;12.50;83.50;;;;;;4934335;28;20043;-84
2021/09/20 07:37:52;;;;;;;1.77;1.17;;;12.50;83.40;;;;;;4971682;28;20093;-85
2021/09/20 07:40:21;;;;;;;1.65;1.10;;;12.60;83.30;;;;;;4977396;28;20135;-83
2021/09/20 07:42:53;;;;;;;1.90;1.40;;;12.60;83.30;;;;;;4980098;28;20556;-85
2021/09/20 07:45:59;;;;;;;1.95;1.30;;;12.70;83.20;;;;;;4958922;28;20054;-83
2021/09/20 07:48:34;;;;;;;2.10;1.35;;;12.70;83.20;;;;;;4910070;29;20048;-85
2021/09/20 07:51:00;;;;;;;1.25;1.15;;;12.70;83.00;;;;;;4926010;29;20048;-82
2021/09/20 07:53:26;;;;;;;1.38;1.20;;;12.80;83.00;;;;;;4958756;28;20058;-82
2021/09/20 07:56:05;;;;;;;1.25;0.90;;;12.80;83.00;;;;;;4968398;28;20050;-84
2021/09/20 07:58:31;;;;;;;1.10;1.00;;;12.90;82.90;;;;;;4967784;28;20043;-83
2021/09/20 08:00:59;;;;;;;2.15;1.20;;;13.00;82.90;;;;;;4970309;28;20047;-83
2021/09/20 08:03:30;;;;;;;1.20;1.00;;;13.00;82.90;;;;;;4958087;28;20047;-85
2021/09/20 08:05:59;;;;;;;2.67;1.00;;;13.00;82.80;;;;;;4981185;28;20066;-86
2021/09/20 08:08:25;;;;;;;1.73;1.10;;;13.10;82.70;;;;;;4942324;28;20497;-84
2021/09/20 08:10:51;;;;;;;2.10;1.30;;;13.20;82.70;;;;;;4958071;28;20050;-84
2021/09/20 08:13:19;;;;;;;3.42;1.30;;;13.30;82.60;;;;;;4961146;28;20126;-88
2021/09/20 08:16:23;;;;;;;1.90;1.15;;;13.40;82.50;;;;;;4957608;28;20042;-91
2021/09/20 08:27:00;;;;;;;1.10;0.90;;;13.70;81.80;;;;;;4993374;28;20073;-88
2021/09/20 08:29:36;;;;;;;1.33;1.00;;;13.90;81.60;;;;;;4918864;29;20047;-86
2021/09/20 08:32:07;;;;;;;1.20;1.10;;;13.90;81.30;;;;;;4919512;29;20490;-82
2021/09/20 08:34:33;;;;;;;1.42;1.13;;;14.00;81.20;;;;;;4936527;29;20131;-84
2021/09/20 08:36:59;;;;;;;1.15;1.00;;;14.20;81.20;;;;;;4935875;29;20075;-83
2021/09/20 08:39:25;;;;;;;1.58;1.20;;;14.20;80.90;;;;;;4935123;29;20044;-82
2021/09/20 08:41:51;;;;;;;1.45;0.93;;;14.30;80.80;;;;;;4918324;29;20402;-83
2021/09/20 08:44:18;;;;;;;2.15;1.42;;;14.40;80.70;;;;;;4934374;29;20044;-79
2021/09/20 08:46:48;;;;;;;1.95;1.35;;;14.40;80.50;;;;;;4918443;29;20557;-80
2021/09/20 08:53:47;;;;;;;1.10;1.00;;;14.70;80.40;;;;;;4965555;28;20038;-87
2021/09/20 08:56:15;;;;;;;1.10;0.82;;;14.70;80.30;;;;;;4944309;29;20167;-84
2021/09/20 08:59:04;;;;;;;1.30;1.15;;;14.80;80.00;;;;;;4927988;29;21022;-81
2021/09/20 09:01:32;;;;;;;1.40;1.10;;;14.80;79.80;;;;;;4953126;28;20643;-80
2021/09/20 09:04:23;;;;;;;2.20;1.38;;;14.80;79.70;;;;;;4940361;28;20047;-83
2021/09/20 09:06:54;;;;;;;1.92;1.45;;;14.80;79.60;;;;;;4980446;28;20042;-79
2021/09/20 09:09:58;;;;;;;;;;;14.80;79.50;;;;;;4991785;28;20448;-81
2021/09/20 09:15:47;;;;;;;1.30;0.90;;;14.90;79.60;;;;;;4979435;28;20055;-82
2021/09/20 09:18:16;;;;;;;1.13;1.00;;;14.90;79.60;;;;;;4971589;28;20043;-81
2021/09/20 09:20:42;;;;;;;1.92;1.20;;;15.00;79.40;;;;;;4955043;28;20138;-81
2021/09/20 09:23:20;;;;;;;1.90;1.42;;;15.00;79.30;;;;;;4956698;28;20070;-79
2021/09/20 09:26:48;;;;;;;1.52;1.17;;;15.00;79.20;;;;;;4955837;28;20501;-83
2021/09/20 09:29:32;;;;;;;1.58;1.08;;;15.10;79.30;;;;;;4931214;29;20063;-80
2021/09/20 09:32:00;;;;;;;1.27;1.15;;;15.00;79.10;;;;;;4942155;28;20046;-78
2021/09/20 09:34:29;;;;;;;1.50;1.13;;;15.00;79.00;;;;;;4990896;28;20054;-78
2021/09/20 09:37:09;;;;;;;1.33;1.10;;;15.10;79.10;;;;;;4976280;28;20035;-80
2021/09/20 09:39:40;;;;;;;1.20;1.02;;;15.10;79.00;;;;;;4992944;28;20507;-83
2021/09/20 09:42:38;;;;;;;1.10;1.00;;;15.00;78.80;;;;;;4969987;28;20050;-83
2021/09/20 09:46:14;;;;;;;1.27;1.10;;;15.10;78.80;;;;;;4960782;28;20059;-83
2021/09/20 09:49:50;;;;;;;1.95;1.30;;;15.10;78.80;;;;;;4956946;28;20508;-84
2021/09/20 09:53:09;;;;;;;1.27;1.02;;;15.20;78.70;;;;;;4902723;29;20107;-82
2021/09/20 09:59:43;;;;;;;1.20;1.00;;;15.20;78.50;;;;;;4905269;29;20093;-82
2021/09/20 10:05:59;;;;;;;1.00;0.90;;;15.30;78.20;;;;;;4958682;28;20515;-81
2021/09/20 10:08:46;;;;;;;0.95;0.80;;;15.30;78.10;;;;;;4942767;28;20474;-84
2021/09/20 10:11:11;;;;;;;1.13;0.90;;;15.30;77.90;;;;;;4917503;29;20048;-82
2021/09/20 10:13:57;;;;;;;1.10;0.90;;;15.30;77.90;;;;;;4932048;29;20505;-83
2021/09/20 10:16:22;;;;;;;1.23;0.98;;;15.40;77.90;;;;;;4875076;29;20037;-81
2021/09/20 10:23:18;;;;;;;1.48;0.80;;;15.50;77.60;;;;;;4861454;29;20049;-89
2021/09/20 10:25:50;;;;;;;0.80;0.80;;;15.50;77.50;;;;;;4861494;29;20140;-87
2021/09/20 10:28:16;;;;;;;1.35;1.05;;;15.50;77.30;;;;;;4906178;29;20039;-79
2021/09/20 10:30:43;;;;;;;1.50;1.10;;;15.60;77.20;;;;;;4953471;29;20074;-82
2021/09/20 10:33:10;;;;;;;1.33;1.08;;;15.60;76.90;;;;;;4952900;29;20105;-83
2021/09/20 10:35:39;;;;;;;1.02;1.00;;;15.70;76.90;;;;;;4959280;28;20050;-82
2021/09/20 10:38:25;;;;;;;1.52;1.10;;;15.70;76.80;;;;;;4978502;28;20042;-82
2021/09/20 10:41:13;;;;;;;1.77;1.30;;;15.70;76.70;;;;;;5011113;28;20087;-82
2021/09/20 10:43:41;;;;;;;1.38;1.13;;;15.70;76.70;;;;;;5014260;28;20128;-83
2021/09/20 10:46:22;;;;;;;1.00;0.90;;;15.80;76.70;;;;;;5031128;28;20188;-81
2021/09/20 10:48:50;;;;;;;1.00;0.90;;;15.90;76.60;;;;;;5033356;28;20073;-82
2021/09/20 10:51:21;;;;;;;1.40;1.10;;;16.00;76.40;;;;;;5016565;28;20044;-81
2021/09/20 10:53:47;;;;;;;1.52;1.30;;;16.00;76.10;;;;;;5063158;28;20043;-82
2021/09/20 10:56:17;;;;;;;1.02;0.80;;;16.10;76.00;;;;;;5097482;28;20122;-81
2021/09/20 11:10:07;;;;;;;1.10;1.00;;;16.40;75.50;;;;;;4968174;28;20121;-82
2021/09/20 11:13:45;;;;;;;0.98;0.80;;;16.40;75.50;;;;;;4973548;28;20862;-80
2021/09/20 11:23:41;;;;;;;1.20;0.98;;;16.40;75.80;;;;;;4856662;29;20059;-82
2021/09/20 11:26:41;;;;;;;1.25;1.00;;;16.50;75.50;;;;;;4829476;29;20046;-84
2021/09/20 11:29:10;;;;;;;1.40;1.10;;;16.50;75.20;;;;;;4843973;29;20056;-81
2021/09/20 11:32:33;;;;;;;1.25;1.13;;;16.40;75.20;;;;;;4825660;29;20054;-84
2021/09/20 11:35:55;;;;;;;2.45;1.20;;;16.50;75.20;;;;;;4785095;30;20058;-82
2021/09/20 11:50:36;;;;;;;1.20;1.10;;;16.60;75.20;;;;;;4766892;30;20139;-83
2021/09/20 11:53:10;;;;;;;1.50;1.10;;;16.60;75.10;;;;;;4732910;30;20166;-86
2021/09/20 11:55:39;;;;;;;1.38;1.20;;;16.60;75.00;;;;;;4695307;30;20064;-85
2021/09/20 11:58:08;;;;;;;1.20;1.10;;;16.60;75.10;;;;;;4699029;30;20077;-83
2021/09/20 12:01:07;;;;;;;1.30;1.08;;;16.70;75.00;;;;;;4703098;30;20041;-85
2021/09/20 12:03:32;;;;;;;1.90;1.17;;;16.80;74.80;;;;;;4709136;30;20136;-84
2021/09/20 12:06:00;;;;;;;1.42;1.02;;;16.80;74.70;;;;;;4686502;30;20081;-81
2021/09/20 12:08:26;;;;;;;1.33;1.10;;;16.90;74.50;;;;;;4726184;30;20096;-81
2021/09/20 12:11:03;;;;;;;1.40;1.15;;;16.90;74.40;;;;;;4767897;30;20052;-84
2021/09/20 12:14:15;;;;;;;1.45;1.00;;;16.90;74.20;;;;;;4767537;30;20048;-82
2021/09/20 12:16:41;;;;;;;1.30;1.15;;;16.90;74.00;;;;;;4756711;29;20047;-81
2021/09/20 12:19:06;;;;;;;1.67;1.20;;;17.00;74.10;;;;;;4829023;29;20045;-83
2021/09/20 12:21:33;;;;;;;1.40;1.05;;;17.10;74.10;;;;;;4841741;29;20536;-85
2021/09/20 12:23:59;;;;;;;1.70;1.20;;;17.10;73.80;;;;;;4909092;28;20047;-81
2021/09/20 12:26:28;;;;;;;1.85;1.50;;;17.10;73.80;;;;;;5017362;28;20132;-85
2021/09/20 12:28:58;;;;;;;1.40;1.10;;;17.00;73.80;;;;;;5019777;28;20049;-81
2021/09/20 12:31:43;;;;;;;1.80;1.20;;;17.00;74.00;;;;;;5050407;28;20041;-81
2021/09/20 12:34:16;;;;;;;1.35;1.20;;;17.00;74.10;;;;;;5092621;28;20074;-82
2021/09/20 12:36:44;;;;;;;1.30;1.10;;;16.90;74.10;;;;;;5113629;28;20190;-81
2021/09/20 12:39:33;;;;;;;1.20;1.10;;;16.90;74.20;;;;;;5077786;28;20156;-81
2021/09/20 12:42:03;;;;;;;1.92;1.10;;;16.90;74.20;;;;;;5095068;28;20051;-82
2021/09/20 12:44:40;;;;;;;1.52;1.10;;;17.10;74.20;;;;;;5095074;28;20048;-81
2021/09/20 12:47:08;;;;;;;1.17;1.00;;;17.10;74.10;;;;;;5094679;28;20044;-83
2021/09/20 12:49:35;;;;;;;1.90;1.20;;;17.10;74.10;;;;;;5094580;28;20432;-82
2021/09/20 12:52:03;;;;;;;1.42;1.05;;;17.10;74.50;;;;;;5097021;28;20048;-82
2021/09/20 12:54:32;;;;;;;1.27;1.10;;;17.20;73.80;;;;;;5114003;28;20256;-81
2021/09/20 12:57:17;;;;;;;1.52;1.17;;;17.20;73.60;;;;;;5115049;28;20036;-80
2021/09/20 12:59:43;;;;;;;1.63;1.30;;;17.20;73.60;;;;;;5113113;28;20132;-82
2021/09/20 13:07:28;;;;;;;1.10;0.98;;;17.10;73.80;;;;;;5110882;28;20081;-83
2021/09/20 13:25:41;;;;;;;1.60;1.00;;;17.00;74.00;;;;;;4857531;29;20135;-87
2021/09/20 13:28:19;;;;;;;1.58;1.05;;;17.10;73.70;;;;;;4857066;29;20049;-89
2021/09/20 13:31:10;;;;;;;1.38;1.00;;;17.00;73.60;;;;;;4809671;29;20057;-87
2021/09/20 13:33:36;;;;;;;1.50;0.95;;;17.00;73.50;;;;;;4798845;29;20571;-85
2021/09/20 13:36:11;;;;;;;1.20;1.10;;;17.00;73.70;;;;;;4820389;29;21275;-85
2021/09/20 13:38:40;;;;;;;1.17;0.90;;;17.10;73.70;;;;;;4805671;29;20091;-83
2021/09/20 13:41:16;;;;;;;1.40;1.00;;;17.00;73.60;;;;;;4821716;29;20480;-85
2021/09/20 13:50:46;;;;;;;1.15;0.90;;;17.10;73.30;;;;;;4831098;29;20054;-86
2021/09/20 13:53:13;;;;;;;0.68;0.68;;;17.10;73.30;;;;;;4824915;29;20046;-84
2021/09/20 13:55:40;;;;;;;1.42;1.10;;;17.20;73.20;;;;;;4839793;29;20050;-85
2021/09/20 13:58:12;;;;;;;2.17;1.10;;;17.10;72.90;;;;;;4892735;29;20040;-86
2021/09/20 14:00:40;;;;;;;1.50;0.90;;;17.10;72.80;;;;;;4933913;28;20045;-83
2021/09/20 14:03:06;;;;;;;0.93;0.88;;;17.00;73.00;;;;;;5015069;28;20052;-87
2021/09/20 14:06:35;;;;;;;1.00;0.90;;;16.90;73.20;;;;;;4999113;28;20095;-84
2021/09/20 14:16:48;;;;;;;0.75;0.70;;;16.70;73.60;;;;;;4891488;29;20063;-82
2021/09/20 14:26:54;;;;;;;0.80;0.70;;;16.70;73.50;;;;;;4786473;29;20100;-84
2021/09/20 14:29:22;;;;;;;0.50;0.50;;;16.70;73.40;;;;;;4785833;30;20067;-83
2021/09/20 14:32:09;;;;;;;1.10;0.50;;;16.70;73.20;;;;;;4783064;30;20541;-82
2021/09/20 14:34:40;;;;;;;0.60;0.60;;;16.70;73.20;;;;;;4757565;30;20055;-82
2021/09/20 14:37:18;;;;;;;0.73;0.50;;;16.70;73.10;;;;;;4775610;30;20035;-82
2021/09/20 14:39:46;;;;;;;0.60;0.60;;;16.70;73.00;;;;;;4806578;29;20051;-82
2021/09/20 14:42:22;;;;;;;0.68;0.57;;;16.70;73.00;;;;;;4817911;29;20066;-85
2021/09/20 14:44:52;;;;;;;0.73;0.40;;;16.70;72.90;;;;;;4807169;29;20586;-80
2021/09/20 14:47:24;;;;;;;0.40;0.40;;;16.80;72.70;;;;;;4791378;29;20093;-84
2021/09/20 14:49:50;;;;;;;0.77;0.50;;;16.80;72.60;;;;;;4842862;29;20037;-82
2021/09/20 14:52:17;;;;;;;0.50;0.50;;;16.80;72.50;;;;;;4859461;29;20056;-82
2021/09/20 14:54:45;;;;;;;0.35;0.35;;;16.80;72.40;;;;;;4860327;29;20071;-83
2021/09/20 14:57:11;;;;;;;0.93;0.40;;;16.90;72.30;;;;;;4900399;29;20045;-81
2021/09/20 14:59:37;;;;;;;0.40;0.40;;;16.80;72.20;;;;;;4984422;28;20525;-81